createdAt,value
2019-02-06T00:00:47.318Z,59.80
2019-02-06T00:03:24.940Z,59.50
2019-02-06T00:05:55.578Z,59.10
2019-02-06T00:08:27.327Z,59.10
2019-02-06T00:10:58.134Z,59.20
2019-02-06T00:13:29.343Z,59.40
2019-02-06T00:16:00.450Z,59.70
2019-02-06T00:18:32.025Z,60.00
2019-02-06T00:21:02.601Z,60.50
2019-02-06T00:23:33.821Z,61.00
2019-02-06T00:26:05.218Z,61.50
2019-02-06T00:28:36.048Z,62.00
2019-02-06T00:31:06.887Z,62.50
2019-02-06T00:33:39.689Z,62.80
2019-02-06T00:36:10.381Z,63.20
2019-02-06T00:38:41.027Z,63.80
2019-02-06T00:41:13.215Z,64.30
2019-02-06T00:43:44.008Z,64.60
2019-02-06T00:46:15.591Z,64.90
2019-02-06T00:49:06.387Z,65.30
2019-02-06T00:51:37.095Z,65.50
2019-02-06T00:54:09.387Z,66.40
2019-02-06T00:56:40.029Z,65.60
2019-02-06T00:59:11.137Z,65.90
2019-02-06T01:01:41.907Z,66.30
2019-02-06T01:04:12.727Z,67.40
2019-02-06T01:06:43.727Z,68.00
2019-02-06T01:09:14.609Z,68.50
2019-02-06T01:11:45.024Z,69.00
2019-02-06T01:14:15.599Z,70.30
2019-02-06T01:16:46.701Z,71.00
2019-02-06T01:19:17.581Z,71.70
2019-02-06T01:21:48.789Z,72.90
2019-02-06T01:24:19.893Z,73.90
2019-02-06T01:26:50.388Z,75.20
2019-02-06T01:29:20.891Z,75.90
2019-02-06T01:31:53.389Z,76.20
2019-02-06T01:34:24.211Z,76.60
2019-02-06T01:36:55.807Z,78.00
2019-02-06T01:39:26.692Z,78.30
2019-02-06T01:41:57.290Z,78.60
2019-02-06T01:44:28.612Z,79.80
2019-02-06T01:46:59.484Z,79.40
2019-02-06T01:49:30.078Z,79.60
2019-02-06T01:52:01.615Z,80.10
2019-02-06T01:54:33.763Z,81.10
2019-02-06T01:57:04.771Z,81.70
2019-02-06T01:59:35.694Z,82.20
2019-02-06T02:02:07.102Z,83.30
2019-02-06T02:04:37.888Z,84.20
2019-02-06T02:07:08.659Z,84.90
2019-02-06T02:09:40.377Z,85.60
2019-02-06T02:12:11.310Z,86.00
2019-02-06T02:14:42.187Z,86.70
2019-02-06T02:17:13.750Z,87.30
2019-02-06T02:19:44.626Z,88.00
2019-02-06T02:22:14.896Z,88.40
2019-02-06T02:24:45.409Z,88.90
2019-02-06T02:27:16.291Z,89.30
2019-02-06T02:29:47.759Z,89.50
2019-02-06T02:32:18.611Z,90.00
2019-02-06T02:34:50.290Z,90.20
2019-02-06T02:37:22.750Z,90.30
2019-02-06T02:39:53.385Z,90.40
2019-02-06T02:42:24.449Z,90.60
2019-02-06T02:44:54.933Z,90.80
2019-02-06T02:47:25.905Z,90.90
2019-02-06T02:49:56.332Z,90.90
2019-02-06T02:52:27.319Z,91.00
2019-02-06T02:54:57.864Z,91.10
2019-02-06T02:57:28.904Z,91.20
2019-02-06T02:59:59.628Z,91.20
2019-02-06T03:02:44.731Z,91.20
2019-02-06T03:05:19.666Z,91.40
2019-02-06T03:07:50.732Z,91.40
2019-02-06T03:10:22.747Z,91.40
2019-02-06T03:12:53.250Z,91.40
2019-02-06T03:15:24.272Z,91.50
2019-02-06T03:17:55.175Z,91.50
2019-02-06T03:20:26.285Z,91.50
2019-02-06T03:22:57.304Z,91.40
2019-02-06T03:25:28.291Z,91.40
2019-02-06T03:27:59.104Z,91.50
2019-02-06T03:30:32.237Z,91.50
2019-02-06T03:33:02.998Z,91.30
2019-02-06T03:35:33.727Z,91.50
2019-02-06T03:38:04.613Z,91.50
2019-02-06T03:40:35.992Z,91.60
2019-02-06T03:43:06.669Z,91.60
2019-02-06T03:45:37.175Z,91.40
2019-02-06T03:48:07.577Z,91.60
2019-02-06T03:50:38.857Z,91.70
2019-02-06T03:53:10.734Z,92.10
2019-02-06T03:55:42.021Z,91.70
2019-02-06T03:58:12.576Z,91.70
2019-02-06T04:00:44.328Z,91.70
2019-02-06T04:03:14.951Z,91.70
2019-02-06T04:05:45.414Z,91.70
2019-02-06T04:08:15.832Z,91.80
2019-02-06T04:10:46.325Z,91.60
2019-02-06T04:13:16.864Z,91.60
2019-02-06T04:15:47.728Z,91.70
2019-02-06T04:18:18.498Z,91.80
2019-02-06T04:20:49.420Z,91.80
2019-02-06T04:23:20.459Z,91.90
2019-02-06T04:25:51.951Z,91.90
2019-02-06T04:28:22.531Z,91.90
2019-02-06T04:30:53.571Z,91.90
2019-02-06T04:33:24.599Z,91.80
2019-02-06T04:35:55.659Z,91.90
2019-02-06T04:38:25.977Z,91.80
2019-02-06T04:40:56.458Z,91.80
2019-02-06T04:43:27.341Z,91.80
2019-02-06T04:46:02.333Z,91.80
2019-02-06T04:48:32.861Z,91.50
2019-02-06T04:51:04.128Z,91.60
2019-02-06T04:53:35.054Z,91.40
2019-02-06T04:56:06.159Z,91.50
2019-02-06T04:58:37.732Z,91.60
2019-02-06T05:01:08.637Z,91.60
2019-02-06T05:03:39.146Z,91.10
2019-02-06T05:06:10.253Z,91.00
2019-02-06T05:08:41.343Z,91.20
2019-02-06T05:11:12.144Z,89.70
2019-02-06T05:13:42.566Z,85.40
2019-02-06T05:16:14.231Z,80.90
2019-02-06T05:18:44.924Z,76.50
2019-02-06T05:21:15.327Z,73.30
2019-02-06T05:23:47.128Z,70.50
2019-02-06T05:26:17.765Z,68.60
2019-02-06T05:28:48.652Z,68.00
2019-02-06T05:31:19.698Z,65.80
2019-02-06T05:33:50.460Z,64.60
2019-02-06T05:36:21.067Z,63.60
2019-02-06T05:38:51.702Z,62.70
2019-02-06T05:41:22.307Z,61.80
2019-02-06T05:43:53.786Z,61.30
2019-02-06T05:46:24.549Z,60.90
2019-02-06T05:48:55.985Z,60.20
2019-02-06T05:51:26.540Z,59.90
2019-02-06T05:53:57.538Z,59.50
2019-02-06T05:56:28.260Z,59.30
2019-02-06T05:58:59.472Z,58.90
2019-02-06T06:01:30.388Z,58.70
2019-02-06T06:04:01.981Z,58.60
2019-02-06T06:06:32.876Z,58.30
2019-02-06T06:09:04.934Z,58.00
2019-02-06T06:11:36.289Z,57.80
2019-02-06T06:14:07.440Z,57.60
2019-02-06T06:16:37.768Z,57.40
2019-02-06T06:19:08.923Z,57.30
2019-02-06T06:21:39.261Z,57.00
2019-02-06T06:24:10.580Z,56.90
2019-02-06T06:26:41.226Z,56.80
2019-02-06T06:29:11.819Z,56.60
2019-02-06T06:31:42.438Z,56.50
2019-02-06T06:34:12.950Z,56.40
2019-02-06T06:36:43.737Z,56.30
2019-02-06T06:39:14.766Z,56.10
2019-02-06T06:41:45.750Z,56.60
2019-02-06T06:44:16.247Z,55.90
2019-02-06T06:46:47.585Z,55.70
2019-02-06T06:49:18.563Z,55.50
2019-02-06T06:51:49.171Z,55.40
2019-02-06T06:54:19.946Z,55.30
2019-02-06T06:56:50.794Z,55.20
2019-02-06T06:59:21.542Z,55.00
2019-02-06T07:01:52.130Z,54.90
2019-02-06T07:04:22.866Z,54.80
2019-02-06T07:06:53.633Z,54.70
2019-02-06T07:09:27.738Z,54.70
2019-02-06T07:11:58.724Z,54.60
2019-02-06T07:14:29.283Z,54.40
2019-02-06T07:17:01.094Z,54.40
2019-02-06T07:19:31.652Z,54.30
2019-02-06T07:22:02.577Z,54.60
2019-02-06T07:24:33.666Z,54.80
2019-02-06T07:27:04.271Z,54.80
2019-02-06T07:29:35.825Z,54.60
2019-02-06T07:32:06.511Z,54.70
2019-02-06T07:34:37.530Z,54.50
2019-02-06T07:37:08.099Z,54.30
2019-02-06T07:39:38.756Z,54.20
2019-02-06T07:42:10.691Z,54.20
2019-02-06T07:44:42.013Z,54.20
2019-02-06T07:47:13.693Z,54.10
2019-02-06T07:49:44.785Z,54.20
2019-02-06T07:52:15.176Z,54.40
2019-02-06T07:54:46.973Z,54.70
2019-02-06T07:57:17.547Z,55.00
2019-02-06T07:59:48.289Z,55.30
2019-02-06T08:02:19.021Z,55.50
2019-02-06T08:04:50.037Z,55.80
2019-02-06T08:07:21.747Z,56.00
2019-02-06T08:09:52.713Z,56.20
2019-02-06T08:12:23.467Z,56.40
2019-02-06T08:14:55.158Z,56.50
2019-02-06T08:17:25.936Z,56.60
2019-02-06T08:19:57.288Z,57.00
2019-02-06T08:22:28.097Z,56.90
2019-02-06T08:24:59.030Z,57.00
2019-02-06T08:27:30.383Z,57.10
2019-02-06T08:30:01.255Z,57.30
2019-02-06T08:32:31.794Z,57.20
2019-02-06T08:35:02.297Z,57.30
2019-02-06T08:37:33.199Z,57.40
2019-02-06T08:40:03.634Z,56.70
2019-02-06T08:42:34.351Z,56.90
2019-02-06T08:45:05.800Z,57.10
2019-02-06T08:47:36.430Z,57.10
2019-02-06T08:50:09.231Z,57.50
2019-02-06T08:52:42.989Z,57.50
2019-02-06T08:55:16.637Z,57.50
2019-02-06T08:57:47.695Z,57.60
2019-02-06T09:00:22.535Z,58.20
2019-02-06T09:02:53.588Z,58.80
2019-02-06T09:05:24.093Z,59.00
2019-02-06T09:07:54.519Z,58.30
2019-02-06T09:10:25.434Z,57.80
2019-02-06T09:12:56.537Z,57.10
2019-02-06T09:15:27.603Z,56.20
2019-02-06T09:17:58.570Z,55.50
2019-02-06T09:20:30.478Z,54.70
2019-02-06T09:23:01.842Z,54.20
2019-02-06T09:25:32.367Z,53.70
2019-02-06T09:28:03.800Z,53.30
2019-02-06T09:30:35.948Z,53.00
2019-02-06T09:33:08.865Z,52.60
2019-02-06T09:35:40.214Z,52.40
2019-02-06T09:38:10.711Z,52.10
2019-02-06T09:40:43.023Z,52.00
2019-02-06T09:43:13.618Z,51.70
2019-02-06T09:45:44.353Z,51.50
2019-02-06T09:48:15.540Z,51.40
2019-02-06T09:50:46.914Z,51.20
2019-02-06T09:53:18.175Z,51.10
2019-02-06T09:55:48.941Z,50.90
2019-02-06T09:58:20.227Z,50.60
2019-02-06T10:00:51.306Z,50.60
2019-02-06T10:03:22.094Z,50.60
2019-02-06T10:05:52.831Z,50.60
2019-02-06T10:08:24.102Z,50.70
2019-02-06T10:10:54.823Z,50.90
2019-02-06T10:13:26.222Z,51.00
2019-02-06T10:15:57.342Z,51.00
2019-02-06T10:18:28.078Z,51.10
2019-02-06T10:20:58.721Z,51.30
2019-02-06T10:23:29.209Z,51.30
2019-02-06T10:25:59.782Z,51.60
2019-02-06T10:28:30.539Z,51.50
2019-02-06T10:31:01.481Z,51.70
2019-02-06T10:33:32.010Z,51.60
2019-02-06T10:36:04.902Z,51.70
2019-02-06T10:38:36.321Z,51.70
2019-02-06T10:41:07.448Z,51.00
2019-02-06T10:43:37.841Z,50.90
2019-02-06T10:46:08.496Z,50.50
2019-02-06T10:48:39.159Z,50.40
2019-02-06T10:51:09.934Z,50.60
2019-02-06T10:53:41.356Z,50.80
2019-02-06T10:56:13.897Z,51.00
2019-02-06T10:58:44.666Z,50.70
2019-02-06T11:01:16.304Z,50.30
2019-02-06T11:03:47.149Z,50.00
2019-02-06T11:06:17.621Z,49.70
2019-02-06T11:08:49.354Z,49.80
2019-02-06T11:11:19.893Z,49.60
2019-02-06T11:13:50.224Z,49.30
2019-02-06T11:16:20.976Z,48.60
2019-02-06T11:18:51.437Z,48.10
2019-02-06T11:21:22.868Z,47.80
2019-02-06T11:23:53.827Z,47.20
2019-02-06T11:26:24.490Z,46.40
2019-02-06T11:29:52.710Z,45.80
2019-02-06T11:32:23.614Z,45.20
2019-02-06T11:34:55.480Z,44.40
2019-02-06T11:37:27.598Z,44.00
2019-02-06T11:39:58.459Z,43.70
2019-02-06T11:42:29.201Z,43.40
2019-02-06T11:45:00.526Z,43.60
2019-02-06T11:47:31.347Z,43.50
2019-02-06T11:50:03.364Z,43.50
2019-02-06T11:52:33.902Z,43.60
2019-02-06T11:55:05.100Z,43.40
2019-02-06T11:57:36.146Z,43.30
2019-02-06T12:00:11.018Z,43.10
2019-02-06T12:02:42.376Z,43.20
2019-02-06T12:05:14.058Z,43.50
2019-02-06T12:07:46.341Z,43.80
2019-02-06T12:10:18.630Z,44.10
2019-02-06T12:12:49.743Z,44.60
2019-02-06T12:15:20.788Z,44.60
2019-02-06T12:17:51.855Z,45.10
2019-02-06T12:20:23.473Z,45.10
2019-02-06T12:22:55.292Z,45.00
2019-02-06T12:25:26.144Z,45.00
2019-02-06T12:27:59.599Z,44.90
2019-02-06T12:30:33.382Z,45.00
2019-02-06T12:33:05.335Z,45.10
2019-02-06T12:35:37.457Z,45.00
2019-02-06T12:38:08.782Z,44.90
2019-02-06T12:40:40.256Z,44.80
2019-02-06T12:43:12.322Z,44.70
2019-02-06T12:45:44.085Z,45.30
2019-02-06T12:48:14.735Z,44.40
2019-02-06T12:50:45.890Z,44.30
2019-02-06T12:53:16.622Z,44.10
2019-02-06T12:55:48.678Z,44.00
2019-02-06T12:58:19.716Z,43.80
2019-02-06T13:00:50.389Z,43.90
2019-02-06T13:03:20.901Z,43.80
2019-02-06T13:05:52.128Z,44.60
2019-02-06T13:08:23.513Z,43.80
2019-02-06T13:10:53.917Z,43.70
2019-02-06T13:13:24.626Z,43.80
2019-02-06T13:15:55.029Z,43.80
2019-02-06T13:18:25.729Z,43.80
2019-02-06T13:20:56.477Z,43.90
2019-02-06T13:23:28.145Z,44.70
2019-02-06T13:25:59.547Z,44.00
2019-02-06T13:28:30.858Z,44.00
2019-02-06T13:31:01.724Z,44.00
2019-02-06T13:33:32.953Z,44.10
2019-02-06T13:36:06.734Z,44.30
2019-02-06T13:38:37.627Z,44.40
2019-02-06T13:41:09.486Z,44.30
2019-02-06T13:43:39.150Z,44.00
2019-02-06T13:46:10.306Z,43.80
2019-02-06T13:48:41.190Z,43.50
2019-02-06T13:51:16.532Z,43.30
2019-02-06T13:53:45.463Z,43.10
2019-02-06T13:56:16.343Z,42.80
2019-02-06T13:58:47.828Z,42.70
2019-02-06T14:01:25.356Z,42.50
2019-02-06T14:03:52.358Z,42.30
2019-02-06T14:06:24.231Z,42.10
2019-02-06T14:08:55.119Z,41.90
2019-02-06T14:11:26.523Z,41.70
2019-02-06T14:13:59.041Z,41.70
2019-02-06T14:16:30.293Z,41.70
2019-02-06T14:19:01.264Z,41.60
2019-02-06T14:21:32.022Z,41.70
2019-02-06T14:24:43.610Z,41.70
2019-02-06T14:27:27.316Z,41.80
2019-02-06T14:30:47.371Z,42.20
2019-02-06T14:34:00.493Z,43.20
2019-02-06T14:37:12.275Z,43.10
2019-02-06T14:40:01.515Z,43.30
2019-02-06T14:43:03.505Z,43.60
2019-02-06T14:46:13.900Z,44.80
2019-02-06T14:49:08.301Z,44.60
2019-02-06T14:52:12.935Z,45.30
2019-02-06T14:55:27.764Z,45.90
2019-02-06T14:58:46.247Z,46.50
2019-02-06T15:02:05.716Z,47.10
2019-02-06T15:05:12.561Z,47.70
2019-02-06T15:07:53.260Z,48.20
2019-02-06T15:11:19.680Z,48.20
2019-02-06T15:14:11.434Z,49.00
2019-02-06T15:17:18.827Z,49.50
2019-02-06T15:20:16.097Z,49.80
2019-02-06T15:23:33.105Z,50.00
2019-02-06T15:26:33.005Z,49.40
2019-02-06T15:29:35.619Z,49.50
2019-02-06T15:32:47.837Z,50.00
2019-02-06T15:35:57.775Z,50.60
2019-02-06T15:39:04.471Z,51.10
2019-02-06T15:42:07.929Z,51.30
2019-02-06T15:45:08.458Z,51.70
2019-02-06T15:47:56.632Z,51.40
2019-02-06T15:51:16.100Z,52.70
2019-02-06T15:54:31.531Z,52.90
2019-02-06T15:57:34.787Z,52.20
2019-02-06T16:00:48.152Z,51.50
2019-02-06T16:03:55.654Z,50.90
2019-02-06T16:06:55.818Z,50.00
2019-02-06T16:10:09.411Z,49.60
2019-02-06T16:13:05.214Z,49.20
2019-02-06T16:16:27.195Z,48.80
2019-02-06T16:19:19.857Z,49.30
2019-02-06T16:22:18.192Z,48.30
2019-02-06T16:25:30.006Z,48.10
2019-02-06T16:28:49.964Z,48.00
2019-02-06T16:31:46.100Z,47.80
2019-02-06T16:34:54.466Z,47.70
2019-02-06T16:37:51.253Z,47.60
2019-02-06T16:41:00.225Z,47.60
2019-02-06T16:44:03.148Z,47.50
2019-02-06T16:47:13.097Z,47.40
2019-02-06T16:50:37.535Z,47.60
2019-02-06T16:53:30.270Z,47.70
2019-02-06T16:56:48.380Z,48.00
2019-02-06T17:00:17.031Z,48.20
2019-02-06T17:03:17.661Z,48.50
2019-02-06T17:06:25.106Z,48.90
2019-02-06T17:09:42.866Z,49.10
2019-02-06T17:12:48.352Z,49.50
2019-02-06T17:15:55.241Z,49.60
2019-02-06T17:19:24.773Z,49.80
2019-02-06T17:22:47.158Z,49.60
2019-02-06T17:26:10.230Z,51.00
2019-02-06T17:29:21.814Z,51.80
2019-02-06T17:32:36.706Z,52.50
2019-02-06T17:35:27.383Z,52.80
2019-02-06T17:38:30.835Z,53.50
2019-02-06T17:41:29.221Z,53.30
2019-02-06T17:44:34.079Z,53.80
2019-02-06T17:47:48.950Z,54.30
2019-02-06T17:50:56.040Z,54.50
2019-02-06T17:53:50.734Z,54.50
2019-02-06T17:56:21.710Z,54.70
2019-02-06T17:58:53.233Z,55.40
2019-02-06T18:01:45.417Z,55.50
2019-02-06T18:04:35.199Z,55.50
2019-02-06T18:07:07.099Z,56.10
2019-02-06T18:09:40.177Z,56.00
2019-02-06T18:12:12.433Z,56.30
2019-02-06T18:14:43.363Z,57.20
2019-02-06T18:17:15.720Z,57.60
2019-02-06T18:19:48.757Z,57.30
2019-02-06T18:22:22.507Z,56.30
2019-02-06T18:24:54.680Z,55.70
2019-02-06T18:27:26.717Z,54.90
2019-02-06T18:29:58.838Z,54.30
2019-02-06T18:32:30.796Z,53.50
2019-02-06T18:35:03.390Z,52.90
2019-02-06T18:37:43.274Z,52.30
2019-02-06T18:40:16.451Z,51.90
2019-02-06T18:42:49.110Z,51.80
2019-02-06T18:45:20.512Z,51.40
2019-02-06T18:47:58.326Z,51.60
2019-02-06T18:50:31.328Z,50.70
2019-02-06T18:53:05.747Z,50.50
2019-02-06T18:55:38.152Z,50.30
2019-02-06T18:58:11.110Z,50.20
2019-02-06T19:00:43.610Z,50.40
2019-02-06T19:03:26.645Z,49.50
2019-02-06T19:05:58.214Z,49.50
2019-02-06T19:08:34.737Z,49.50
2019-02-06T19:11:06.868Z,49.40
2019-02-06T19:13:40.618Z,49.50
2019-02-06T19:16:12.347Z,49.70
2019-02-06T19:18:44.826Z,49.90
2019-02-06T19:21:18.015Z,50.00
2019-02-06T19:23:49.692Z,50.00
2019-02-06T19:26:23.649Z,50.40
2019-02-06T19:28:55.537Z,51.30
2019-02-06T19:31:29.383Z,50.90
2019-02-06T19:34:02.993Z,51.00
2019-02-06T19:36:35.250Z,51.10
2019-02-06T19:39:10.929Z,50.70
2019-02-06T19:41:42.423Z,50.60
2019-02-06T19:44:16.679Z,51.00
2019-02-06T19:46:49.991Z,51.50
2019-02-06T19:49:24.302Z,51.60
2019-02-06T19:51:56.670Z,51.30
2019-02-06T19:54:30.330Z,51.20
2019-02-06T19:57:03.668Z,51.80
2019-02-06T19:59:34.779Z,51.90
2019-02-06T20:02:06.261Z,52.00
2019-02-06T20:04:40.503Z,52.40
2019-02-06T20:07:12.039Z,52.40
2019-02-06T20:09:46.314Z,52.80
2019-02-06T20:12:19.012Z,53.30
2019-02-06T20:14:50.195Z,53.20
2019-02-06T20:17:21.358Z,53.40
2019-02-06T20:19:55.141Z,53.90
2019-02-06T20:22:26.691Z,53.80
2019-02-06T20:24:58.322Z,54.10
2019-02-06T20:27:30.013Z,54.30
2019-02-06T20:30:02.621Z,54.40
2019-02-06T20:32:38.205Z,54.70
2019-02-06T20:35:11.384Z,54.20
2019-02-06T20:37:44.001Z,53.70
2019-02-06T20:40:21.641Z,52.80
2019-02-06T20:42:54.072Z,52.30
2019-02-06T20:45:28.064Z,51.70
2019-02-06T20:48:00.998Z,50.90
2019-02-06T20:50:36.627Z,50.50
2019-02-06T20:53:08.023Z,50.10
2019-02-06T20:55:42.768Z,49.70
2019-02-06T20:58:14.100Z,49.40
2019-02-06T21:00:46.658Z,49.10
2019-02-06T21:03:22.398Z,48.90
2019-02-06T21:05:54.486Z,48.70
2019-02-06T21:08:25.542Z,48.60
2019-02-06T21:11:02.617Z,48.50
2019-02-06T21:13:33.708Z,48.30
2019-02-06T21:16:05.957Z,48.20
2019-02-06T21:18:39.813Z,48.10
2019-02-06T21:21:11.229Z,48.00
2019-02-06T21:23:42.554Z,48.10
2019-02-06T21:26:14.869Z,48.10
2019-02-06T21:28:46.560Z,48.20
2019-02-06T21:31:18.826Z,48.40
2019-02-06T21:33:51.598Z,48.60
2019-02-06T21:36:23.632Z,48.70
2019-02-06T21:38:55.518Z,48.90
2019-02-06T21:41:27.752Z,49.10
2019-02-06T21:43:59.110Z,49.30
2019-02-06T21:46:31.342Z,48.90
2019-02-06T21:49:02.147Z,49.40
2019-02-06T21:51:33.963Z,49.80
2019-02-06T21:54:05.432Z,49.70
2019-02-06T21:56:38.543Z,50.20
2019-02-06T21:59:11.953Z,50.50
2019-02-06T22:01:43.895Z,50.30
2019-02-06T22:04:17.417Z,50.40
2019-02-06T22:06:48.076Z,50.60
2019-02-06T22:09:18.314Z,51.00
2019-02-06T22:11:48.914Z,51.90
2019-02-06T22:14:20.618Z,51.80
2019-02-06T22:16:52.106Z,52.10
2019-02-06T22:19:23.241Z,52.10
2019-02-06T22:21:53.319Z,52.70
2019-02-06T22:24:24.144Z,52.80
2019-02-06T22:26:55.192Z,53.00
2019-02-06T22:29:26.661Z,53.30
2019-02-06T22:31:58.516Z,53.50
2019-02-06T22:34:29.400Z,53.60
2019-02-06T22:36:59.923Z,53.80
2019-02-06T22:39:31.118Z,53.90
2019-02-06T22:42:02.042Z,53.70
2019-02-06T22:44:32.695Z,54.10
2019-02-06T22:47:03.505Z,54.10
2019-02-06T22:49:34.321Z,54.20
2019-02-06T22:52:05.272Z,55.10
2019-02-06T22:54:35.988Z,55.30
2019-02-06T22:57:06.676Z,55.30
2019-02-06T22:59:37.655Z,55.90
2019-02-06T23:02:08.207Z,55.70
2019-02-06T23:04:39.971Z,55.00
2019-02-06T23:07:11.712Z,54.20
2019-02-06T23:09:42.380Z,53.70
2019-02-06T23:12:13.534Z,53.40
2019-02-06T23:14:44.921Z,53.10
2019-02-06T23:17:15.430Z,52.80
2019-02-06T23:19:46.036Z,52.40
2019-02-06T23:22:17.073Z,52.20
2019-02-06T23:24:48.225Z,52.50
2019-02-06T23:27:19.284Z,52.50
2019-02-06T23:29:49.903Z,52.50
2019-02-06T23:32:20.576Z,53.00
2019-02-06T23:34:51.091Z,52.50
2019-02-06T23:37:22.318Z,52.50
2019-02-06T23:39:53.099Z,52.70
2019-02-06T23:42:25.356Z,52.50
2019-02-06T23:45:13.262Z,52.90
2019-02-06T23:47:45.097Z,53.40
2019-02-06T23:50:15.893Z,53.70
2019-02-06T23:52:47.339Z,54.20
2019-02-06T23:55:19.226Z,54.40
2019-02-06T23:57:51.220Z,54.70
